sensor_id;sensor_type;location;lat;lon;timestamp;temperature;humidity
5134;DHT22;2585;48.696;10.066;2023-11-19T00:00:09;5.40;95.70
5134;DHT22;2585;48.696;10.066;2023-11-19T00:02:41;5.40;95.70
5134;DHT22;2585;48.696;10.066;2023-11-19T00:05:09;5.40;95.70
5134;DHT22;2585;48.696;10.066;2023-11-19T00:07:36;5.50;95.70
5134;DHT22;2585;48.696;10.066;2023-11-19T00:10:04;5.40;95.70
5134;DHT22;2585;48.696;10.066;2023-11-19T00:12:33;5.50;95.70
5134;DHT22;2585;48.696;10.066;2023-11-19T00:15:00;5.50;95.70
5134;DHT22;2585;48.696;10.066;2023-11-19T00:17:27;5.40;95.70
5134;DHT22;2585;48.696;10.066;2023-11-19T00:19:54;5.50;95.70
5134;DHT22;2585;48.696;10.066;2023-11-19T00:22:21;5.50;95.70
5134;DHT22;2585;48.696;10.066;2023-11-19T00:24:49;5.50;95.70
5134;DHT22;2585;48.696;10.066;2023-11-19T00:27:16;5.60;95.70
5134;DHT22;2585;48.696;10.066;2023-11-19T00:29:44;5.60;95.70
5134;DHT22;2585;48.696;10.066;2023-11-19T00:32:11;5.70;95.80
5134;DHT22;2585;48.696;10.066;2023-11-19T00:34:38;5.70;95.80
5134;DHT22;2585;48.696;10.066;2023-11-19T00:37:05;5.70;95.80
5134;DHT22;2585;48.696;10.066;2023-11-19T00:39:33;5.80;95.80
5134;DHT22;2585;48.696;10.066;2023-11-19T00:42:00;5.80;95.80
5134;DHT22;2585;48.696;10.066;2023-11-19T00:44:27;5.80;95.80
5134;DHT22;2585;48.696;10.066;2023-11-19T00:46:54;5.80;95.80
5134;DHT22;2585;48.696;10.066;2023-11-19T00:49:20;5.70;95.80
5134;DHT22;2585;48.696;10.066;2023-11-19T00:51:47;5.70;95.80
5134;DHT22;2585;48.696;10.066;2023-11-19T00:54:15;5.70;95.80
5134;DHT22;2585;48.696;10.066;2023-11-19T00:56:42;5.70;95.80
5134;DHT22;2585;48.696;10.066;2023-11-19T00:59:09;5.70;95.80
5134;DHT22;2585;48.696;10.066;2023-11-19T01:01:36;5.70;95.80
5134;DHT22;2585;48.696;10.066;2023-11-19T01:04:03;5.80;95.80
5134;DHT22;2585;48.696;10.066;2023-11-19T01:06:30;5.80;95.80
5134;DHT22;2585;48.696;10.066;2023-11-19T01:08:58;5.80;95.80
5134;DHT22;2585;48.696;10.066;2023-11-19T01:11:25;5.80;95.80
5134;DHT22;2585;48.696;10.066;2023-11-19T01:13:52;5.80;95.80
5134;DHT22;2585;48.696;10.066;2023-11-19T01:16:19;5.80;95.80
5134;DHT22;2585;48.696;10.066;2023-11-19T01:18:49;5.80;95.80
5134;DHT22;2585;48.696;10.066;2023-11-19T01:21:16;5.80;95.80
5134;DHT22;2585;48.696;10.066;2023-11-19T01:23:43;5.80;95.80
5134;DHT22;2585;48.696;10.066;2023-11-19T01:26:11;5.80;95.80
5134;DHT22;2585;48.696;10.066;2023-11-19T01:28:39;5.90;95.90
5134;DHT22;2585;48.696;10.066;2023-11-19T01:31:17;5.80;95.80
5134;DHT22;2585;48.696;10.066;2023-11-19T01:33:44;5.90;95.90
5134;DHT22;2585;48.696;10.066;2023-11-19T01:36:14;5.90;95.90
5134;DHT22;2585;48.696;10.066;2023-11-19T01:38:41;5.90;95.90
5134;DHT22;2585;48.696;10.066;2023-11-19T01:41:08;5.90;95.90
5134;DHT22;2585;48.696;10.066;2023-11-19T01:43:36;5.90;95.90
5134;DHT22;2585;48.696;10.066;2023-11-19T01:46:05;5.90;95.90
5134;DHT22;2585;48.696;10.066;2023-11-19T01:48:34;5.90;95.90
5134;DHT22;2585;48.696;10.066;2023-11-19T01:51:02;5.90;95.90
5134;DHT22;2585;48.696;10.066;2023-11-19T01:53:31;6.00;95.90
5134;DHT22;2585;48.696;10.066;2023-11-19T01:55:59;6.00;95.90
5134;DHT22;2585;48.696;10.066;2023-11-19T01:58:27;6.00;95.90
5134;DHT22;2585;48.696;10.066;2023-11-19T02:00:54;6.00;95.90
5134;DHT22;2585;48.696;10.066;2023-11-19T02:03:21;6.00;95.90
5134;DHT22;2585;48.696;10.066;2023-11-19T02:05:49;6.00;95.90
5134;DHT22;2585;48.696;10.066;2023-11-19T02:08:18;6.10;95.90
5134;DHT22;2585;48.696;10.066;2023-11-19T02:10:45;6.10;95.90
5134;DHT22;2585;48.696;10.066;2023-11-19T02:13:12;6.10;95.90
5134;DHT22;2585;48.696;10.066;2023-11-19T02:15:41;6.10;95.90
5134;DHT22;2585;48.696;10.066;2023-11-19T02:18:21;6.10;95.90
5134;DHT22;2585;48.696;10.066;2023-11-19T02:20:51;6.10;95.90
5134;DHT22;2585;48.696;10.066;2023-11-19T02:23:19;6.20;91.30
5134;DHT22;2585;48.696;10.066;2023-11-19T02:26:03;6.20;91.30
5134;DHT22;2585;48.696;10.066;2023-11-19T02:28:33;6.20;91.30
5134;DHT22;2585;48.696;10.066;2023-11-19T02:31:00;6.20;91.30
5134;DHT22;2585;48.696;10.066;2023-11-19T02:33:27;6.20;91.30
5134;DHT22;2585;48.696;10.066;2023-11-19T02:35:54;6.20;91.30
5134;DHT22;2585;48.696;10.066;2023-11-19T02:38:21;6.20;91.30
5134;DHT22;2585;48.696;10.066;2023-11-19T02:40:48;6.20;91.30
5134;DHT22;2585;48.696;10.066;2023-11-19T02:43:15;6.20;91.30
5134;DHT22;2585;48.696;10.066;2023-11-19T02:45:43;6.30;91.30
5134;DHT22;2585;48.696;10.066;2023-11-19T02:48:12;6.30;91.30
5134;DHT22;2585;48.696;10.066;2023-11-19T02:50:41;6.30;91.30
5134;DHT22;2585;48.696;10.066;2023-11-19T02:53:08;6.30;91.30
5134;DHT22;2585;48.696;10.066;2023-11-19T02:55:35;6.30;91.30
5134;DHT22;2585;48.696;10.066;2023-11-19T02:58:05;6.30;91.30
5134;DHT22;2585;48.696;10.066;2023-11-19T03:00:39;6.30;91.30
5134;DHT22;2585;48.696;10.066;2023-11-19T03:03:14;6.30;91.30
5134;DHT22;2585;48.696;10.066;2023-11-19T03:05:47;6.30;91.30
5134;DHT22;2585;48.696;10.066;2023-11-19T03:08:17;6.40;91.40
5134;DHT22;2585;48.696;10.066;2023-11-19T03:10:47;6.40;91.40
5134;DHT22;2585;48.696;10.066;2023-11-19T03:13:15;6.40;91.40
5134;DHT22;2585;48.696;10.066;2023-11-19T03:15:42;6.40;91.40
5134;DHT22;2585;48.696;10.066;2023-11-19T03:18:09;6.40;91.40
5134;DHT22;2585;48.696;10.066;2023-11-19T03:20:36;6.40;91.40
5134;DHT22;2585;48.696;10.066;2023-11-19T03:23:03;6.50;91.40
5134;DHT22;2585;48.696;10.066;2023-11-19T03:25:29;6.40;91.40
5134;DHT22;2585;48.696;10.066;2023-11-19T03:28:01;6.40;91.40
5134;DHT22;2585;48.696;10.066;2023-11-19T03:30:31;6.40;91.40
5134;DHT22;2585;48.696;10.066;2023-11-19T03:33:01;6.50;91.40
5134;DHT22;2585;48.696;10.066;2023-11-19T03:35:28;6.50;91.40
5134;DHT22;2585;48.696;10.066;2023-11-19T03:37:55;6.50;91.40
5134;DHT22;2585;48.696;10.066;2023-11-19T03:40:22;6.50;91.40
5134;DHT22;2585;48.696;10.066;2023-11-19T03:42:50;6.50;91.40
5134;DHT22;2585;48.696;10.066;2023-11-19T03:45:17;6.50;91.40
5134;DHT22;2585;48.696;10.066;2023-11-19T03:47:44;6.50;91.40
5134;DHT22;2585;48.696;10.066;2023-11-19T03:50:11;6.50;91.40
5134;DHT22;2585;48.696;10.066;2023-11-19T03:52:38;6.60;91.40
5134;DHT22;2585;48.696;10.066;2023-11-19T03:55:08;6.60;91.40
5134;DHT22;2585;48.696;10.066;2023-11-19T03:57:35;6.60;91.40
5134;DHT22;2585;48.696;10.066;2023-11-19T04:00:02;7.00;91.50
5134;DHT22;2585;48.696;10.066;2023-11-19T04:02:41;7.20;91.60
5134;DHT22;2585;48.696;10.066;2023-11-19T04:05:08;8.00;91.80
5134;DHT22;2585;48.696;10.066;2023-11-19T04:07:36;8.20;91.90
5134;DHT22;2585;48.696;10.066;2023-11-19T04:10:04;8.30;91.90
5134;DHT22;2585;48.696;10.066;2023-11-19T04:12:31;8.50;91.90
5134;DHT22;2585;48.696;10.066;2023-11-19T04:14:58;8.60;92.00
5134;DHT22;2585;48.696;10.066;2023-11-19T04:17:27;8.70;92.00
5134;DHT22;2585;48.696;10.066;2023-11-19T04:19:55;8.70;92.00
5134;DHT22;2585;48.696;10.066;2023-11-19T04:22:22;8.60;92.00
5134;DHT22;2585;48.696;10.066;2023-11-19T04:24:49;8.80;92.00
5134;DHT22;2585;48.696;10.066;2023-11-19T04:27:16;8.70;92.00
5134;DHT22;2585;48.696;10.066;2023-11-19T04:29:43;8.90;92.00
5134;DHT22;2585;48.696;10.066;2023-11-19T04:32:09;8.90;92.00
5134;DHT22;2585;48.696;10.066;2023-11-19T04:34:36;8.90;92.00
5134;DHT22;2585;48.696;10.066;2023-11-19T04:37:04;8.90;92.00
5134;DHT22;2585;48.696;10.066;2023-11-19T04:39:34;8.90;92.00
5134;DHT22;2585;48.696;10.066;2023-11-19T04:42:01;9.00;92.10
5134;DHT22;2585;48.696;10.066;2023-11-19T04:44:27;9.10;92.10
5134;DHT22;2585;48.696;10.066;2023-11-19T04:46:56;9.10;92.10
5134;DHT22;2585;48.696;10.066;2023-11-19T04:49:24;9.10;92.10
5134;DHT22;2585;48.696;10.066;2023-11-19T04:51:53;9.20;92.10
5134;DHT22;2585;48.696;10.066;2023-11-19T04:54:20;9.20;92.10
5134;DHT22;2585;48.696;10.066;2023-11-19T04:56:47;9.20;92.10
5134;DHT22;2585;48.696;10.066;2023-11-19T04:59:14;9.20;92.10
5134;DHT22;2585;48.696;10.066;2023-11-19T05:01:41;9.30;92.10
5134;DHT22;2585;48.696;10.066;2023-11-19T05:04:08;9.30;92.10
5134;DHT22;2585;48.696;10.066;2023-11-19T05:06:35;9.30;92.10
5134;DHT22;2585;48.696;10.066;2023-11-19T05:09:02;9.30;92.10
5134;DHT22;2585;48.696;10.066;2023-11-19T05:11:35;9.30;92.10
5134;DHT22;2585;48.696;10.066;2023-11-19T05:14:05;9.30;92.10
5134;DHT22;2585;48.696;10.066;2023-11-19T05:16:32;9.40;92.20
5134;DHT22;2585;48.696;10.066;2023-11-19T05:18:59;9.40;92.20
5134;DHT22;2585;48.696;10.066;2023-11-19T05:21:26;9.40;92.20
5134;DHT22;2585;48.696;10.066;2023-11-19T05:23:53;9.40;92.20
5134;DHT22;2585;48.696;10.066;2023-11-19T05:26:22;9.50;92.20
5134;DHT22;2585;48.696;10.066;2023-11-19T05:28:50;9.40;92.20
5134;DHT22;2585;48.696;10.066;2023-11-19T05:31:17;9.40;92.20
5134;DHT22;2585;48.696;10.066;2023-11-19T05:33:45;9.50;92.20
5134;DHT22;2585;48.696;10.066;2023-11-19T05:36:12;9.40;92.20
5134;DHT22;2585;48.696;10.066;2023-11-19T05:38:39;9.40;92.20
5134;DHT22;2585;48.696;10.066;2023-11-19T05:41:06;9.60;92.20
5134;DHT22;2585;48.696;10.066;2023-11-19T05:43:33;9.60;92.20
5134;DHT22;2585;48.696;10.066;2023-11-19T05:46:00;9.70;92.20
5134;DHT22;2585;48.696;10.066;2023-11-19T05:48:28;9.70;92.20
5134;DHT22;2585;48.696;10.066;2023-11-19T05:50:55;9.60;92.20
5134;DHT22;2585;48.696;10.066;2023-11-19T05:53:22;9.60;92.20
5134;DHT22;2585;48.696;10.066;2023-11-19T05:55:49;9.60;92.20
5134;DHT22;2585;48.696;10.066;2023-11-19T05:58:25;9.60;92.20
5134;DHT22;2585;48.696;10.066;2023-11-19T06:00:53;9.60;92.20
5134;DHT22;2585;48.696;10.066;2023-11-19T06:03:19;9.70;92.20
5134;DHT22;2585;48.696;10.066;2023-11-19T06:05:49;9.80;92.30
5134;DHT22;2585;48.696;10.066;2023-11-19T06:08:16;9.80;92.30
5134;DHT22;2585;48.696;10.066;2023-11-19T06:10:44;9.80;92.30
5134;DHT22;2585;48.696;10.066;2023-11-19T06:13:13;9.80;92.30
5134;DHT22;2585;48.696;10.066;2023-11-19T06:15:42;9.80;92.30
5134;DHT22;2585;48.696;10.066;2023-11-19T06:18:10;9.80;92.30
5134;DHT22;2585;48.696;10.066;2023-11-19T06:20:40;9.80;92.30
5134;DHT22;2585;48.696;10.066;2023-11-19T06:23:09;9.80;92.30
5134;DHT22;2585;48.696;10.066;2023-11-19T06:25:36;9.80;92.30
5134;DHT22;2585;48.696;10.066;2023-11-19T06:28:03;9.90;92.30
5134;DHT22;2585;48.696;10.066;2023-11-19T06:30:31;9.90;92.30
5134;DHT22;2585;48.696;10.066;2023-11-19T06:32:59;10.00;92.00
5134;DHT22;2585;48.696;10.066;2023-11-19T06:35:27;9.90;92.30
5134;DHT22;2585;48.696;10.066;2023-11-19T06:37:55;9.90;92.30
5134;DHT22;2585;48.696;10.066;2023-11-19T06:40:22;9.90;92.30
5134;DHT22;2585;48.696;10.066;2023-11-19T06:42:49;9.90;92.30
5134;DHT22;2585;48.696;10.066;2023-11-19T06:45:19;9.90;92.30
5134;DHT22;2585;48.696;10.066;2023-11-19T06:47:45;10.00;92.00
5134;DHT22;2585;48.696;10.066;2023-11-19T06:50:12;9.90;92.30
5134;DHT22;2585;48.696;10.066;2023-11-19T06:52:39;10.00;92.00
5134;DHT22;2585;48.696;10.066;2023-11-19T06:55:07;10.00;92.00
5134;DHT22;2585;48.696;10.066;2023-11-19T06:57:35;10.00;92.00
5134;DHT22;2585;48.696;10.066;2023-11-19T07:00:02;10.10;92.00
5134;DHT22;2585;48.696;10.066;2023-11-19T07:02:29;10.10;92.00
5134;DHT22;2585;48.696;10.066;2023-11-19T07:04:57;10.10;92.00
5134;DHT22;2585;48.696;10.066;2023-11-19T07:07:24;10.10;92.00
5134;DHT22;2585;48.696;10.066;2023-11-19T07:09:51;10.10;92.00
5134;DHT22;2585;48.696;10.066;2023-11-19T07:12:17;10.10;92.00
5134;DHT22;2585;48.696;10.066;2023-11-19T07:14:44;10.20;92.10
5134;DHT22;2585;48.696;10.066;2023-11-19T07:17:11;10.10;92.00
5134;DHT22;2585;48.696;10.066;2023-11-19T07:19:38;10.20;92.10
5134;DHT22;2585;48.696;10.066;2023-11-19T07:22:06;10.20;92.10
5134;DHT22;2585;48.696;10.066;2023-11-19T07:24:33;10.20;92.10
5134;DHT22;2585;48.696;10.066;2023-11-19T07:27:00;10.20;92.10
5134;DHT22;2585;48.696;10.066;2023-11-19T07:29:29;10.30;92.10
5134;DHT22;2585;48.696;10.066;2023-11-19T07:31:58;10.30;92.10
5134;DHT22;2585;48.696;10.066;2023-11-19T07:34:25;10.30;92.10
5134;DHT22;2585;48.696;10.066;2023-11-19T07:36:52;10.30;92.10
5134;DHT22;2585;48.696;10.066;2023-11-19T07:39:19;10.40;92.10
5134;DHT22;2585;48.696;10.066;2023-11-19T07:41:47;10.40;92.10
5134;DHT22;2585;48.696;10.066;2023-11-19T07:44:14;10.40;92.10
5134;DHT22;2585;48.696;10.066;2023-11-19T07:46:41;10.30;92.10
5134;DHT22;2585;48.696;10.066;2023-11-19T07:49:09;10.40;92.10
5134;DHT22;2585;48.696;10.066;2023-11-19T07:51:37;10.30;92.10
5134;DHT22;2585;48.696;10.066;2023-11-19T07:54:04;10.30;92.10
5134;DHT22;2585;48.696;10.066;2023-11-19T07:56:33;10.30;92.10
5134;DHT22;2585;48.696;10.066;2023-11-19T07:59:02;10.30;92.10
5134;DHT22;2585;48.696;10.066;2023-11-19T08:01:29;10.30;92.10
5134;DHT22;2585;48.696;10.066;2023-11-19T08:03:56;10.30;92.10
5134;DHT22;2585;48.696;10.066;2023-11-19T08:06:25;10.30;92.10
5134;DHT22;2585;48.696;10.066;2023-11-19T08:08:52;10.40;92.10
5134;DHT22;2585;48.696;10.066;2023-11-19T08:11:19;10.40;92.10
5134;DHT22;2585;48.696;10.066;2023-11-19T08:13:47;10.30;92.10
5134;DHT22;2585;48.696;10.066;2023-11-19T08:16:14;10.30;92.10
5134;DHT22;2585;48.696;10.066;2023-11-19T08:18:43;10.40;92.10
5134;DHT22;2585;48.696;10.066;2023-11-19T08:21:10;10.40;92.10
5134;DHT22;2585;48.696;10.066;2023-11-19T08:23:38;10.40;92.10
5134;DHT22;2585;48.696;10.066;2023-11-19T08:26:05;10.40;92.10
5134;DHT22;2585;48.696;10.066;2023-11-19T08:28:33;10.40;92.10
5134;DHT22;2585;48.696;10.066;2023-11-19T08:31:02;10.40;92.10
5134;DHT22;2585;48.696;10.066;2023-11-19T08:33:32;10.50;92.10
5134;DHT22;2585;48.696;10.066;2023-11-19T08:35:58;10.50;92.10
5134;DHT22;2585;48.696;10.066;2023-11-19T08:38:25;10.50;92.10
5134;DHT22;2585;48.696;10.066;2023-11-19T08:40:55;10.60;92.20
5134;DHT22;2585;48.696;10.066;2023-11-19T08:43:27;10.60;92.20
5134;DHT22;2585;48.696;10.066;2023-11-19T08:45:54;10.60;92.20
5134;DHT22;2585;48.696;10.066;2023-11-19T08:48:21;10.60;92.20
5134;DHT22;2585;48.696;10.066;2023-11-19T08:50:48;10.70;92.20
5134;DHT22;2585;48.696;10.066;2023-11-19T08:53:15;10.80;92.20
5134;DHT22;2585;48.696;10.066;2023-11-19T08:55:42;10.90;92.20
5134;DHT22;2585;48.696;10.066;2023-11-19T08:58:09;10.90;92.20
5134;DHT22;2585;48.696;10.066;2023-11-19T09:00:36;10.90;92.20
5134;DHT22;2585;48.696;10.066;2023-11-19T09:03:03;10.90;92.20
5134;DHT22;2585;48.696;10.066;2023-11-19T09:05:30;11.00;92.30
5134;DHT22;2585;48.696;10.066;2023-11-19T09:07:58;11.00;92.30
5134;DHT22;2585;48.696;10.066;2023-11-19T09:10:25;11.00;92.30
5134;DHT22;2585;48.696;10.066;2023-11-19T09:12:53;11.00;92.30
5134;DHT22;2585;48.696;10.066;2023-11-19T09:15:23;11.00;92.30
5134;DHT22;2585;48.696;10.066;2023-11-19T09:17:50;11.10;92.30
5134;DHT22;2585;48.696;10.066;2023-11-19T09:20:17;11.10;92.30
5134;DHT22;2585;48.696;10.066;2023-11-19T09:22:44;11.10;92.30
5134;DHT22;2585;48.696;10.066;2023-11-19T09:25:11;11.10;92.30
5134;DHT22;2585;48.696;10.066;2023-11-19T09:27:38;11.20;92.30
5134;DHT22;2585;48.696;10.066;2023-11-19T09:30:05;11.30;92.30
5134;DHT22;2585;48.696;10.066;2023-11-19T09:32:33;11.30;92.30
5134;DHT22;2585;48.696;10.066;2023-11-19T09:35:00;11.40;92.30
5134;DHT22;2585;48.696;10.066;2023-11-19T09:37:27;11.50;92.40
5134;DHT22;2585;48.696;10.066;2023-11-19T09:39:54;11.50;92.40
5134;DHT22;2585;48.696;10.066;2023-11-19T09:42:20;11.50;92.40
5134;DHT22;2585;48.696;10.066;2023-11-19T09:44:48;11.60;92.40
5134;DHT22;2585;48.696;10.066;2023-11-19T09:47:16;11.70;92.40
5134;DHT22;2585;48.696;10.066;2023-11-19T09:49:44;11.70;92.40
5134;DHT22;2585;48.696;10.066;2023-11-19T09:52:11;11.70;92.40
5134;DHT22;2585;48.696;10.066;2023-11-19T09:54:37;12.10;92.50
5134;DHT22;2585;48.696;10.066;2023-11-19T09:57:06;12.20;92.50
5134;DHT22;2585;48.696;10.066;2023-11-19T09:59:34;12.20;92.50
5134;DHT22;2585;48.696;10.066;2023-11-19T10:02:02;12.40;92.60
5134;DHT22;2585;48.696;10.066;2023-11-19T10:04:30;12.80;92.70
5134;DHT22;2585;48.696;10.066;2023-11-19T10:07:01;12.70;92.60
5134;DHT22;2585;48.696;10.066;2023-11-19T10:09:28;12.50;92.60
5134;DHT22;2585;48.696;10.066;2023-11-19T10:11:55;12.40;92.60
5134;DHT22;2585;48.696;10.066;2023-11-19T10:14:23;12.20;92.50
5134;DHT22;2585;48.696;10.066;2023-11-19T10:16:51;12.10;92.50
5134;DHT22;2585;48.696;10.066;2023-11-19T10:19:20;11.90;92.40
5134;DHT22;2585;48.696;10.066;2023-11-19T10:21:48;11.80;92.40
5134;DHT22;2585;48.696;10.066;2023-11-19T10:24:15;11.90;92.40
5134;DHT22;2585;48.696;10.066;2023-11-19T10:26:57;12.00;92.50
5134;DHT22;2585;48.696;10.066;2023-11-19T10:29:24;12.10;92.50
5134;DHT22;2585;48.696;10.066;2023-11-19T10:32:00;12.40;92.60
5134;DHT22;2585;48.696;10.066;2023-11-19T10:34:47;12.80;92.70
5134;DHT22;2585;48.696;10.066;2023-11-19T10:37:30;13.10;92.80
5134;DHT22;2585;48.696;10.066;2023-11-19T10:39:59;13.30;92.80
5134;DHT22;2585;48.696;10.066;2023-11-19T10:42:26;13.40;92.80
5134;DHT22;2585;48.696;10.066;2023-11-19T10:44:53;13.70;92.90
5134;DHT22;2585;48.696;10.066;2023-11-19T10:47:20;13.80;92.90
5134;DHT22;2585;48.696;10.066;2023-11-19T10:50:04;14.00;92.90
5134;DHT22;2585;48.696;10.066;2023-11-19T10:52:34;14.20;93.00
5134;DHT22;2585;48.696;10.066;2023-11-19T10:55:03;14.10;92.90
5134;DHT22;2585;48.696;10.066;2023-11-19T10:57:35;13.70;92.80
5134;DHT22;2585;48.696;10.066;2023-11-19T11:00:03;13.70;92.80
5134;DHT22;2585;48.696;10.066;2023-11-19T11:02:40;13.80;92.80
5134;DHT22;2585;48.696;10.066;2023-11-19T11:05:09;13.90;92.80
5134;DHT22;2585;48.696;10.066;2023-11-19T11:07:39;14.10;92.90
5134;DHT22;2585;48.696;10.066;2023-11-19T11:10:07;14.00;92.80
5134;DHT22;2585;48.696;10.066;2023-11-19T11:12:37;13.80;92.80
5134;DHT22;2585;48.696;10.066;2023-11-19T11:15:14;13.70;92.70
5134;DHT22;2585;48.696;10.066;2023-11-19T11:17:44;13.50;92.70
5134;DHT22;2585;48.696;10.066;2023-11-19T11:20:14;13.40;92.60
5134;DHT22;2585;48.696;10.066;2023-11-19T11:23:11;13.20;92.60
5134;DHT22;2585;48.696;10.066;2023-11-19T11:29:09;12.90;92.50
5134;DHT22;2585;48.696;10.066;2023-11-19T11:37:34;13.00;92.50
5134;DHT22;2585;48.696;10.066;2023-11-19T11:40:02;13.00;92.40
5134;DHT22;2585;48.696;10.066;2023-11-19T11:42:37;13.30;92.50
5134;DHT22;2585;48.696;10.066;2023-11-19T11:45:14;13.90;92.70
5134;DHT22;2585;48.696;10.066;2023-11-19T11:50:15;14.40;92.70
5134;DHT22;2585;48.696;10.066;2023-11-19T11:57:51;14.40;92.60
5134;DHT22;2585;48.696;10.066;2023-11-19T12:00:22;14.00;92.40
5134;DHT22;2585;48.696;10.066;2023-11-19T12:03:01;14.00;92.40
5134;DHT22;2585;48.696;10.066;2023-11-19T12:05:29;14.30;92.50
5134;DHT22;2585;48.696;10.066;2023-11-19T12:07:57;14.50;92.40
5134;DHT22;2585;48.696;10.066;2023-11-19T12:10:29;14.70;92.40
5134;DHT22;2585;48.696;10.066;2023-11-19T12:12:59;14.90;92.50
5134;DHT22;2585;48.696;10.066;2023-11-19T12:15:27;15.00;92.30
5134;DHT22;2585;48.696;10.066;2023-11-19T12:17:55;15.10;92.20
5134;DHT22;2585;48.696;10.066;2023-11-19T12:20:23;14.90;92.10
5134;DHT22;2585;48.696;10.066;2023-11-19T12:22:53;14.70;91.90
5134;DHT22;2585;48.696;10.066;2023-11-19T12:25:20;15.00;91.90
5134;DHT22;2585;48.696;10.066;2023-11-19T12:27:50;14.80;91.60
5134;DHT22;2585;48.696;10.066;2023-11-19T12:30:20;15.10;91.60
5134;DHT22;2585;48.696;10.066;2023-11-19T12:32:47;15.20;91.20
5134;DHT22;2585;48.696;10.066;2023-11-19T12:35:14;15.00;90.90
5134;DHT22;2585;48.696;10.066;2023-11-19T12:37:46;15.00;90.80
5134;DHT22;2585;48.696;10.066;2023-11-19T12:40:21;15.40;90.90
5134;DHT22;2585;48.696;10.066;2023-11-19T12:42:57;15.80;90.00
5134;DHT22;2585;48.696;10.066;2023-11-19T12:45:24;15.90;88.20
5134;DHT22;2585;48.696;10.066;2023-11-19T12:48:07;15.90;84.00
5134;DHT22;2585;48.696;10.066;2023-11-19T12:50:52;15.60;78.70
5134;DHT22;2585;48.696;10.066;2023-11-19T12:53:21;15.90;77.90
5134;DHT22;2585;48.696;10.066;2023-11-19T12:55:48;15.00;70.60
5134;DHT22;2585;48.696;10.066;2023-11-19T12:58:29;14.60;71.00
5134;DHT22;2585;48.696;10.066;2023-11-19T13:01:03;14.30;70.00
5134;DHT22;2585;48.696;10.066;2023-11-19T13:03:35;14.80;72.90
5134;DHT22;2585;48.696;10.066;2023-11-19T13:06:09;14.80;63.00
5134;DHT22;2585;48.696;10.066;2023-11-19T13:08:43;15.10;57.50
5134;DHT22;2585;48.696;10.066;2023-11-19T13:11:35;15.30;48.60
5134;DHT22;2585;48.696;10.066;2023-11-19T13:14:03;15.50;20.10
5134;DHT22;2585;48.696;10.066;2023-11-19T13:16:32;15.40;1.00
5134;DHT22;2585;48.696;10.066;2023-11-19T13:18:59;15.20;1.00
5134;DHT22;2585;48.696;10.066;2023-11-19T13:21:29;14.80;1.00
5134;DHT22;2585;48.696;10.066;2023-11-19T13:23:57;14.80;1.00
5134;DHT22;2585;48.696;10.066;2023-11-19T13:26:23;14.80;77.10
5134;DHT22;2585;48.696;10.066;2023-11-19T13:28:50;14.60;53.40
5134;DHT22;2585;48.696;10.066;2023-11-19T13:31:18;14.70;86.80
5134;DHT22;2585;48.696;10.066;2023-11-19T13:33:45;14.70;29.60
5134;DHT22;2585;48.696;10.066;2023-11-19T13:36:12;14.60;76.50
5134;DHT22;2585;48.696;10.066;2023-11-19T13:38:43;14.30;79.10
5134;DHT22;2585;48.696;10.066;2023-11-19T13:41:11;14.10;82.70
5134;DHT22;2585;48.696;10.066;2023-11-19T13:43:39;14.00;81.40
5134;DHT22;2585;48.696;10.066;2023-11-19T13:46:06;14.10;90.40
5134;DHT22;2585;48.696;10.066;2023-11-19T13:48:36;13.90;92.20
5134;DHT22;2585;48.696;10.066;2023-11-19T13:51:04;13.80;1.00
5134;DHT22;2585;48.696;10.066;2023-11-19T13:53:31;13.80;1.00
5134;DHT22;2585;48.696;10.066;2023-11-19T13:56:17;13.70;1.00
5134;DHT22;2585;48.696;10.066;2023-11-19T13:58:44;13.60;1.00
5134;DHT22;2585;48.696;10.066;2023-11-19T14:01:11;13.60;1.00
5134;DHT22;2585;48.696;10.066;2023-11-19T14:03:39;13.60;92.70
5134;DHT22;2585;48.696;10.066;2023-11-19T14:06:07;13.60;91.00
5134;DHT22;2585;48.696;10.066;2023-11-19T14:08:35;13.50;49.20
5134;DHT22;2585;48.696;10.066;2023-11-19T14:11:02;13.40;61.50
5134;DHT22;2585;48.696;10.066;2023-11-19T14:13:29;13.20;78.60
5134;DHT22;2585;48.696;10.066;2023-11-19T14:15:56;13.00;73.90
5134;DHT22;2585;48.696;10.066;2023-11-19T14:18:23;12.90;70.60
5134;DHT22;2585;48.696;10.066;2023-11-19T14:20:50;12.80;88.30
5134;DHT22;2585;48.696;10.066;2023-11-19T14:23:17;12.80;1.00
5134;DHT22;2585;48.696;10.066;2023-11-19T14:25:43;12.70;1.00
5134;DHT22;2585;48.696;10.066;2023-11-19T14:28:10;12.60;1.00
5134;DHT22;2585;48.696;10.066;2023-11-19T14:30:37;12.40;1.00
5134;DHT22;2585;48.696;10.066;2023-11-19T14:33:05;12.40;1.00
5134;DHT22;2585;48.696;10.066;2023-11-19T14:35:32;12.30;1.00
5134;DHT22;2585;48.696;10.066;2023-11-19T14:38:00;12.30;1.00
5134;DHT22;2585;48.696;10.066;2023-11-19T14:40:31;12.20;1.00
5134;DHT22;2585;48.696;10.066;2023-11-19T14:43:01;12.10;1.00
5134;DHT22;2585;48.696;10.066;2023-11-19T14:45:28;12.00;1.00
5134;DHT22;2585;48.696;10.066;2023-11-19T14:48:02;12.00;1.00
5134;DHT22;2585;48.696;10.066;2023-11-19T14:50:29;11.90;1.00
5134;DHT22;2585;48.696;10.066;2023-11-19T14:52:55;11.90;1.00
5134;DHT22;2585;48.696;10.066;2023-11-19T14:55:22;11.90;1.00
5134;DHT22;2585;48.696;10.066;2023-11-19T14:57:49;11.80;1.00
5134;DHT22;2585;48.696;10.066;2023-11-19T15:00:31;11.70;1.00
5134;DHT22;2585;48.696;10.066;2023-11-19T15:03:00;11.70;1.00
5134;DHT22;2585;48.696;10.066;2023-11-19T15:05:27;11.70;1.00
5134;DHT22;2585;48.696;10.066;2023-11-19T15:07:55;11.60;1.00
5134;DHT22;2585;48.696;10.066;2023-11-19T15:10:22;11.70;1.00
5134;DHT22;2585;48.696;10.066;2023-11-19T15:12:52;11.60;1.00
5134;DHT22;2585;48.696;10.066;2023-11-19T15:15:20;11.60;1.00
5134;DHT22;2585;48.696;10.066;2023-11-19T15:17:50;11.50;1.00
5134;DHT22;2585;48.696;10.066;2023-11-19T15:20:17;11.50;1.00
5134;DHT22;2585;48.696;10.066;2023-11-19T15:22:46;11.60;1.00
5134;DHT22;2585;48.696;10.066;2023-11-19T15:25:13;11.60;1.00
5134;DHT22;2585;48.696;10.066;2023-11-19T15:27:40;11.50;1.00
5134;DHT22;2585;48.696;10.066;2023-11-19T15:30:07;11.60;1.00
5134;DHT22;2585;48.696;10.066;2023-11-19T15:32:37;11.50;1.00
5134;DHT22;2585;48.696;10.066;2023-11-19T15:35:04;11.40;1.00
5134;DHT22;2585;48.696;10.066;2023-11-19T15:37:34;11.30;1.00
5134;DHT22;2585;48.696;10.066;2023-11-19T15:40:02;11.20;1.00
5134;DHT22;2585;48.696;10.066;2023-11-19T15:42:31;11.10;1.00
5134;DHT22;2585;48.696;10.066;2023-11-19T15:44:58;11.10;1.00
5134;DHT22;2585;48.696;10.066;2023-11-19T15:47:25;11.10;1.00
5134;DHT22;2585;48.696;10.066;2023-11-19T15:49:52;11.10;1.00
5134;DHT22;2585;48.696;10.066;2023-11-19T15:52:19;11.20;1.00
5134;DHT22;2585;48.696;10.066;2023-11-19T15:54:46;11.20;1.00
5134;DHT22;2585;48.696;10.066;2023-11-19T15:57:14;11.20;1.00
5134;DHT22;2585;48.696;10.066;2023-11-19T15:59:41;11.20;1.00
5134;DHT22;2585;48.696;10.066;2023-11-19T16:02:08;11.20;1.00
5134;DHT22;2585;48.696;10.066;2023-11-19T16:04:35;11.10;1.00
5134;DHT22;2585;48.696;10.066;2023-11-19T16:07:02;11.10;1.00
5134;DHT22;2585;48.696;10.066;2023-11-19T16:09:29;11.10;1.00
5134;DHT22;2585;48.696;10.066;2023-11-19T16:11:57;11.10;1.00
5134;DHT22;2585;48.696;10.066;2023-11-19T16:14:24;11.10;1.00
5134;DHT22;2585;48.696;10.066;2023-11-19T16:16:52;11.10;1.00
5134;DHT22;2585;48.696;10.066;2023-11-19T16:19:21;11.10;1.00